Terminal Aerodrome Forecast
Issued by NWS Missoula, MT

Home | Current Version | Previous Version | Text Only | Print | Product List | Glossary On
Versions: 1 2 3 4 5 6 7 8 9 10 11 12 13
000
FTUS45 KMSO 221738
TAFGPI
TAF
KGPI 221738Z 2218/2318 21009KT P6SM VCSH SCT050 OVC080
     FM230900 00000KT 4SM BR FEW002
     FM231200 22004KT 2SM BR SCT002
     FM231500 20007KT P6SM SCT150=

USA.gov is the U.S. government's official web portal to all federal, state and local government web resources and services.